Time;durP1;ratioP1;P1;durP2;ratioP2;P2;SDS_P1;SDS_P2;PMS_P1;PMS_P2;Temp;Humidity;BMP_temperature;BMP_pressure;BME280_temperature;BME280_humidity;BME280_pressure;Samples;Min_cycle;Max_cycle;Signal;HPM_P1;HPM_P2
2023/11/17 00:01:41;;;;;;;1.70;1.10;;;21.60;97.50;;;;;;5006872;28;20206;-62
2023/11/17 00:04:08;;;;;;;1.47;1.37;;;21.60;97.50;;;;;;5018551;28;20194;-63
2023/11/17 00:06:35;;;;;;;1.40;1.07;;;21.40;97.40;;;;;;5017160;28;20461;-62
2023/11/17 00:09:05;;;;;;;1.20;1.00;;;21.50;97.40;;;;;;5016117;28;20485;-62
2023/11/17 00:11:34;;;;;;;1.17;1.00;;;21.60;97.60;;;;;;5018348;28;20956;-62
2023/11/17 00:14:02;;;;;;;2.00;1.67;;;21.60;97.60;;;;;;5011684;28;21036;-62
2023/11/17 00:16:29;;;;;;;1.73;1.10;;;21.50;98.00;;;;;;5011930;28;20827;-62
2023/11/17 00:18:56;;;;;;;1.35;1.00;;;21.50;98.00;;;;;;5004960;28;20211;-61
2023/11/17 00:21:23;;;;;;;1.70;1.13;;;21.60;98.30;;;;;;5011198;28;20710;-63
2023/11/17 00:23:49;;;;;;;1.47;1.30;;;21.60;98.60;;;;;;5007002;28;20520;-62
2023/11/17 00:26:17;;;;;;;1.63;1.30;;;21.60;98.90;;;;;;5014018;28;20512;-63
2023/11/17 00:28:44;;;;;;;1.57;1.20;;;21.50;98.70;;;;;;5010112;28;22643;-62
2023/11/17 00:31:13;;;;;;;1.50;1.40;;;21.60;99.00;;;;;;5003542;28;20455;-63
2023/11/17 00:33:41;;;;;;;1.47;1.00;;;21.40;99.10;;;;;;5009620;28;20290;-64
2023/11/17 00:36:09;;;;;;;1.40;0.97;;;21.50;99.40;;;;;;4993192;28;20472;-61
2023/11/17 00:38:36;;;;;;;1.27;1.17;;;21.50;99.40;;;;;;5000020;28;24565;-61
2023/11/17 00:41:04;;;;;;;1.40;1.23;;;21.50;99.90;;;;;;4997303;28;20459;-61
2023/11/17 00:43:31;;;;;;;2.27;1.23;;;21.60;99.90;;;;;;4998661;28;20223;-65
2023/11/17 00:45:59;;;;;;;1.33;1.10;;;21.50;99.90;;;;;;5005866;28;20481;-61
2023/11/17 00:48:28;;;;;;;2.40;1.20;;;21.50;99.60;;;;;;5013194;28;20468;-61
2023/11/17 00:50:55;;;;;;;1.90;1.40;;;21.50;99.90;;;;;;5000066;28;20586;-61
2023/11/17 00:53:25;;;;;;;1.50;1.40;;;21.50;99.90;;;;;;5006591;28;20455;-61
2023/11/17 00:55:52;;;;;;;2.07;1.40;;;21.50;99.60;;;;;;5010274;28;20480;-62
2023/11/17 00:58:20;;;;;;;1.50;1.23;;;21.50;99.80;;;;;;5009532;28;20473;-62
2023/11/17 01:00:46;;;;;;;1.23;1.02;;;21.40;98.90;;;;;;5008522;28;21584;-62
2023/11/17 01:03:14;;;;;;;1.70;1.33;;;21.50;98.20;;;;;;5002852;28;20199;-65
2023/11/17 01:05:42;;;;;;;2.28;1.10;;;21.50;97.60;;;;;;4998945;28;20477;-63
2023/11/17 01:08:09;;;;;;;1.40;1.27;;;21.40;97.10;;;;;;5013030;28;20195;-63
2023/11/17 01:10:36;;;;;;;1.87;1.10;;;21.50;97.40;;;;;;5010451;28;20471;-64
2023/11/17 01:13:03;;;;;;;1.70;1.57;;;21.40;97.30;;;;;;5019697;28;20524;-62
2023/11/17 01:15:30;;;;;;;2.47;1.35;;;21.50;97.60;;;;;;5015863;28;20466;-65
2023/11/17 01:17:57;;;;;;;1.90;1.30;;;21.50;97.70;;;;;;5006666;28;20206;-65
2023/11/17 01:20:24;;;;;;;2.78;1.48;;;21.40;97.40;;;;;;5027353;28;20195;-62
2023/11/17 01:22:52;;;;;;;1.30;1.10;;;21.40;97.10;;;;;;5006564;28;20219;-61
2023/11/17 01:25:18;;;;;;;3.67;1.45;;;21.60;96.80;;;;;;5019128;28;20470;-61
2023/11/17 01:27:45;;;;;;;1.50;1.17;;;21.40;96.70;;;;;;5025780;28;20203;-63
2023/11/17 01:30:14;;;;;;;2.78;1.10;;;21.40;96.80;;;;;;5014142;28;20525;-62
2023/11/17 01:32:41;;;;;;;1.30;1.10;;;21.40;96.80;;;;;;5014561;28;20707;-64
2023/11/17 01:35:09;;;;;;;1.97;1.30;;;21.30;96.60;;;;;;5020212;28;20465;-65
2023/11/17 01:37:35;;;;;;;1.80;1.70;;;21.30;96.70;;;;;;5020967;28;20458;-64
2023/11/17 01:40:05;;;;;;;1.40;1.17;;;21.30;96.60;;;;;;5024770;28;20200;-65
2023/11/17 01:42:33;;;;;;;2.53;1.25;;;21.30;96.50;;;;;;5034114;28;20534;-65
2023/11/17 01:45:00;;;;;;;1.30;1.05;;;21.30;96.40;;;;;;5027420;28;20315;-65
2023/11/17 01:47:27;;;;;;;1.50;1.10;;;21.40;96.50;;;;;;5016263;28;20307;-61
2023/11/17 01:49:53;;;;;;;1.67;1.43;;;21.40;96.60;;;;;;5016243;28;20458;-65
2023/11/17 01:52:20;;;;;;;1.50;1.23;;;21.40;96.70;;;;;;5010198;28;20455;-65
2023/11/17 01:54:48;;;;;;;1.20;0.90;;;21.30;96.70;;;;;;5015813;28;21207;-62
2023/11/17 01:57:17;;;;;;;1.33;1.10;;;21.30;96.50;;;;;;5017444;28;20648;-63
2023/11/17 01:59:44;;;;;;;1.58;1.00;;;21.30;96.60;;;;;;5016192;28;21041;-62
2023/11/17 02:02:10;;;;;;;3.63;1.00;;;21.30;96.40;;;;;;5016623;28;20203;-62
2023/11/17 02:04:37;;;;;;;1.23;1.13;;;21.30;96.30;;;;;;5009130;28;20468;-65
2023/11/17 02:07:13;;;;;;;1.60;1.00;;;21.30;96.30;;;;;;5007868;28;21110;-64
2023/11/17 02:09:47;;;;;;;1.23;1.13;;;21.40;96.80;;;;;;5013307;28;20290;-64
2023/11/17 02:12:23;;;;;;;2.15;1.42;;;21.30;96.50;;;;;;5014957;28;20465;-65
2023/11/17 02:14:55;;;;;;;2.20;1.27;;;21.30;96.60;;;;;;5008055;28;20189;-65
2023/11/17 02:17:28;;;;;;;1.40;1.00;;;21.30;96.60;;;;;;5007089;28;20451;-64
2023/11/17 02:19:59;;;;;;;1.80;1.10;;;21.30;96.60;;;;;;5018896;28;20246;-64
2023/11/17 02:22:30;;;;;;;1.38;1.20;;;21.40;96.60;;;;;;5010524;28;20201;-66
2023/11/17 02:25:10;;;;;;;1.38;1.00;;;21.30;96.60;;;;;;5010600;28;20275;-63
2023/11/17 02:27:46;;;;;;;1.20;1.10;;;21.30;96.80;;;;;;4998857;28;20559;-63
2023/11/17 02:30:19;;;;;;;1.73;1.30;;;21.30;96.60;;;;;;4996591;28;20769;-63
2023/11/17 02:32:48;;;;;;;1.25;1.15;;;21.40;96.70;;;;;;5006868;28;20204;-65
2023/11/17 02:35:16;;;;;;;1.40;1.25;;;21.20;96.60;;;;;;5001777;28;20893;-63
2023/11/17 02:37:43;;;;;;;1.42;1.33;;;21.30;96.80;;;;;;5000603;28;20995;-62
2023/11/17 02:40:18;;;;;;;1.00;0.90;;;21.30;96.80;;;;;;5005871;28;20196;-64
2023/11/17 02:42:47;;;;;;;1.30;0.90;;;21.20;96.80;;;;;;5006146;28;20198;-65
2023/11/17 02:45:19;;;;;;;1.30;1.10;;;21.30;96.80;;;;;;5000760;28;20238;-65
2023/11/17 02:47:48;;;;;;;1.30;1.10;;;21.20;96.70;;;;;;4998678;28;20195;-62
2023/11/17 02:50:18;;;;;;;1.60;1.02;;;21.30;96.80;;;;;;5006683;28;20200;-64
2023/11/17 02:53:00;;;;;;;1.67;1.40;;;21.20;96.70;;;;;;5008792;28;20201;-64
2023/11/17 02:55:29;;;;;;;1.20;1.10;;;21.20;96.60;;;;;;5008945;28;20210;-64
2023/11/17 02:57:57;;;;;;;1.38;0.90;;;21.20;96.70;;;;;;5004441;28;20455;-62
2023/11/17 03:00:26;;;;;;;1.23;1.00;;;21.30;96.80;;;;;;4996358;28;20196;-64
2023/11/17 03:02:57;;;;;;;1.40;1.10;;;21.20;96.80;;;;;;5002946;28;20620;-64
2023/11/17 03:05:26;;;;;;;2.08;1.25;;;21.20;96.80;;;;;;5000819;28;20967;-64
2023/11/17 03:07:53;;;;;;;1.60;1.17;;;21.20;96.70;;;;;;5003170;28;20227;-61
2023/11/17 03:10:21;;;;;;;1.42;1.20;;;21.30;96.80;;;;;;5007968;28;20201;-64
2023/11/17 03:12:49;;;;;;;1.27;1.00;;;21.20;96.80;;;;;;5007073;28;20197;-62
2023/11/17 03:15:16;;;;;;;1.35;1.00;;;21.20;96.70;;;;;;5017485;28;21340;-63
2023/11/17 03:17:44;;;;;;;1.98;1.15;;;21.20;96.70;;;;;;5014889;28;20844;-64
2023/11/17 03:20:14;;;;;;;1.40;1.00;;;21.20;96.70;;;;;;5007032;28;20196;-64
2023/11/17 03:22:44;;;;;;;1.10;0.82;;;21.10;96.60;;;;;;5008972;28;20195;-62
2023/11/17 03:25:15;;;;;;;1.30;1.10;;;21.20;97.00;;;;;;5021583;28;20197;-63
2023/11/17 03:27:43;;;;;;;1.30;1.20;;;21.10;96.60;;;;;;5001373;28;20191;-65
2023/11/17 03:30:11;;;;;;;1.35;1.00;;;21.20;96.70;;;;;;5001282;28;20256;-63
2023/11/17 03:32:37;;;;;;;1.20;1.00;;;21.20;96.70;;;;;;5012740;28;20228;-63
2023/11/17 03:35:06;;;;;;;1.20;1.00;;;21.30;96.70;;;;;;5018352;28;20544;-64
2023/11/17 03:37:33;;;;;;;1.23;1.10;;;21.20;96.70;;;;;;4999696;28;20200;-65
2023/11/17 03:40:06;;;;;;;2.15;1.15;;;21.20;96.70;;;;;;5004301;28;20502;-64
2023/11/17 03:42:34;;;;;;;1.42;0.90;;;21.10;96.70;;;;;;5018516;28;20222;-65
2023/11/17 03:45:07;;;;;;;1.10;0.90;;;21.20;96.70;;;;;;5019876;28;20285;-65
2023/11/17 03:47:34;;;;;;;2.37;1.03;;;21.20;96.70;;;;;;5003507;28;20748;-64
2023/11/17 03:50:01;;;;;;;1.07;0.97;;;21.10;96.70;;;;;;5018505;28;20947;-64
2023/11/17 03:52:29;;;;;;;1.70;1.30;;;21.20;96.60;;;;;;5011349;28;20452;-65
2023/11/17 03:54:57;;;;;;;1.48;1.20;;;21.20;96.70;;;;;;5022063;28;20207;-65
2023/11/17 03:57:24;;;;;;;1.33;1.10;;;21.20;96.60;;;;;;5005731;28;20195;-64
2023/11/17 03:59:53;;;;;;;1.73;1.63;;;21.10;96.50;;;;;;5021079;28;20462;-62
2023/11/17 04:02:22;;;;;;;1.48;1.20;;;21.10;96.50;;;;;;5014318;28;20227;-64
2023/11/17 04:04:49;;;;;;;1.67;1.17;;;21.10;96.70;;;;;;5024924;28;20279;-67
2023/11/17 04:07:16;;;;;;;1.00;0.90;;;21.20;96.90;;;;;;5021837;28;20310;-66
2023/11/17 04:09:47;;;;;;;1.00;0.90;;;21.10;96.90;;;;;;5026781;28;20195;-66
2023/11/17 04:12:15;;;;;;;1.10;0.90;;;21.10;97.00;;;;;;5013208;28;20560;-65
2023/11/17 04:14:42;;;;;;;1.23;0.85;;;21.20;97.00;;;;;;5030617;28;20210;-63
2023/11/17 04:17:10;;;;;;;1.40;1.17;;;21.20;96.90;;;;;;5004301;28;20215;-67
2023/11/17 04:19:37;;;;;;;1.40;0.87;;;21.10;96.80;;;;;;5012404;28;20707;-64
2023/11/17 04:22:04;;;;;;;1.63;1.00;;;21.10;96.80;;;;;;5012048;28;20469;-64
2023/11/17 04:24:32;;;;;;;1.73;1.03;;;21.10;96.80;;;;;;5021103;28;20552;-64
2023/11/17 04:27:00;;;;;;;1.20;1.10;;;21.10;96.80;;;;;;5019412;28;20479;-65
2023/11/17 04:29:27;;;;;;;1.80;1.38;;;21.20;96.80;;;;;;5018699;28;20192;-64
2023/11/17 04:31:54;;;;;;;1.10;1.00;;;21.10;96.70;;;;;;5014234;28;20199;-67
2023/11/17 04:34:21;;;;;;;1.40;1.20;;;21.10;96.80;;;;;;5007965;28;20231;-68
2023/11/17 04:36:48;;;;;;;1.20;1.10;;;21.10;96.70;;;;;;5014579;28;20200;-67
2023/11/17 04:39:18;;;;;;;1.47;1.10;;;21.10;96.60;;;;;;5007722;28;20982;-66
2023/11/17 04:41:45;;;;;;;1.30;0.90;;;21.10;96.60;;;;;;5008140;28;20805;-66
2023/11/17 04:44:13;;;;;;;3.23;1.00;;;21.00;96.50;;;;;;5004523;28;20459;-66
2023/11/17 04:46:39;;;;;;;1.70;1.13;;;21.10;96.60;;;;;;5006629;28;21119;-67
2023/11/17 04:49:06;;;;;;;1.53;1.20;;;21.10;96.80;;;;;;5015629;28;20465;-65
2023/11/17 04:51:35;;;;;;;4.13;1.00;;;21.10;96.80;;;;;;5008866;28;20469;-67
2023/11/17 04:54:02;;;;;;;1.10;1.00;;;21.10;96.80;;;;;;5009137;28;20200;-63
2023/11/17 04:56:30;;;;;;;1.47;0.90;;;21.10;96.80;;;;;;5008348;28;20235;-66
2023/11/17 04:58:57;;;;;;;1.10;0.90;;;21.10;96.80;;;;;;5002757;28;20454;-63
2023/11/17 05:01:25;;;;;;;2.80;1.47;;;21.10;97.10;;;;;;4997550;28;20548;-63
2023/11/17 05:03:52;;;;;;;1.55;1.17;;;21.10;96.60;;;;;;5009713;28;22259;-66
2023/11/17 05:06:22;;;;;;;1.47;0.93;;;21.10;96.60;;;;;;5014238;28;20215;-65
2023/11/17 05:08:49;;;;;;;1.50;1.10;;;21.10;96.90;;;;;;5015721;28;20470;-66
2023/11/17 05:11:17;;;;;;;1.75;1.05;;;21.10;96.50;;;;;;5021387;28;20989;-66
2023/11/17 05:13:44;;;;;;;6.05;1.20;;;21.10;96.50;;;;;;5010486;28;20202;-64
2023/11/17 05:16:12;;;;;;;1.60;1.33;;;21.10;96.70;;;;;;5005789;28;20227;-63
2023/11/17 05:18:40;;;;;;;1.43;0.97;;;21.10;96.70;;;;;;5001101;28;20201;-64
2023/11/17 05:21:07;;;;;;;1.53;1.10;;;21.10;96.60;;;;;;5004410;28;20798;-62
2023/11/17 05:23:34;;;;;;;2.97;1.03;;;21.00;96.60;;;;;;5010645;28;20517;-64
2023/11/17 05:26:01;;;;;;;1.10;0.90;;;21.10;96.60;;;;;;5012699;28;20490;-65
2023/11/17 05:28:28;;;;;;;1.20;1.10;;;21.00;96.80;;;;;;5003229;28;20549;-62
2023/11/17 05:30:56;;;;;;;1.30;1.00;;;21.10;96.80;;;;;;5009378;28;20451;-63
2023/11/17 05:33:23;;;;;;;1.13;1.00;;;21.10;96.80;;;;;;5006166;28;20458;-65
2023/11/17 05:35:51;;;;;;;1.30;1.10;;;21.00;96.80;;;;;;5008363;28;20466;-62
2023/11/17 05:38:17;;;;;;;1.67;1.13;;;21.00;96.90;;;;;;5010402;28;20206;-65
2023/11/17 05:40:44;;;;;;;1.10;0.90;;;21.00;96.80;;;;;;5012473;28;20455;-64
2023/11/17 05:43:12;;;;;;;1.37;1.10;;;21.00;97.20;;;;;;5009878;28;20454;-60
2023/11/17 05:45:39;;;;;;;1.27;1.10;;;21.00;96.90;;;;;;5019299;28;20453;-62
2023/11/17 05:48:06;;;;;;;1.23;0.90;;;21.10;96.90;;;;;;5016879;28;20570;-63
2023/11/17 05:50:33;;;;;;;5.10;1.15;;;21.00;96.90;;;;;;5010342;28;20457;-63
2023/11/17 05:53:01;;;;;;;1.30;1.13;;;21.00;97.00;;;;;;5015467;28;20199;-64
2023/11/17 05:55:28;;;;;;;1.20;1.00;;;21.00;97.00;;;;;;5006143;28;20849;-64
2023/11/17 05:57:55;;;;;;;1.23;1.03;;;21.00;97.20;;;;;;5004266;28;20470;-63
2023/11/17 06:00:26;;;;;;;1.17;0.87;;;21.00;97.40;;;;;;5013630;28;20769;-61
2023/11/17 06:02:53;;;;;;;1.27;1.10;;;21.00;97.50;;;;;;5015108;28;20483;-64
2023/11/17 06:05:20;;;;;;;1.10;1.00;;;21.10;97.60;;;;;;5010812;28;20507;-67
2023/11/17 06:07:47;;;;;;;1.70;1.10;;;21.10;97.60;;;;;;5013494;28;20487;-67
2023/11/17 06:10:15;;;;;;;1.20;1.00;;;21.00;97.50;;;;;;5016321;28;20282;-63
2023/11/17 06:12:42;;;;;;;1.63;1.00;;;21.00;97.70;;;;;;5014525;28;20946;-65
2023/11/17 06:15:10;;;;;;;1.20;0.93;;;21.00;97.60;;;;;;5004471;28;20467;-63
2023/11/17 06:17:37;;;;;;;1.00;0.80;;;21.00;97.60;;;;;;5013114;28;20525;-62
2023/11/17 06:20:05;;;;;;;1.20;0.80;;;20.90;97.70;;;;;;5030473;28;20548;-67
2023/11/17 06:22:32;;;;;;;2.47;1.10;;;21.10;98.10;;;;;;5024023;28;20830;-65
2023/11/17 06:24:59;;;;;;;1.03;0.93;;;21.00;98.10;;;;;;5029549;28;20465;-66
2023/11/17 06:27:27;;;;;;;1.50;1.20;;;21.00;98.10;;;;;;5029096;28;20474;-63
2023/11/17 06:29:55;;;;;;;1.40;1.10;;;21.00;98.00;;;;;;5025524;28;20222;-63
2023/11/17 06:32:22;;;;;;;1.40;1.17;;;21.00;98.00;;;;;;5027908;28;20467;-67
2023/11/17 06:34:49;;;;;;;2.27;1.03;;;21.10;98.10;;;;;;5031336;28;20453;-66
2023/11/17 06:37:17;;;;;;;1.30;1.00;;;21.00;98.00;;;;;;5024909;28;22832;-66
2023/11/17 06:39:44;;;;;;;1.20;1.00;;;21.00;98.00;;;;;;5015210;28;20463;-66
2023/11/17 06:42:11;;;;;;;1.33;1.23;;;20.90;98.00;;;;;;5012617;28;20662;-66
2023/11/17 06:44:40;;;;;;;1.40;1.13;;;20.90;97.90;;;;;;5000937;28;20995;-65
2023/11/17 06:47:07;;;;;;;1.20;0.82;;;21.00;97.90;;;;;;5003750;28;20518;-68
2023/11/17 06:49:34;;;;;;;1.87;1.33;;;21.00;97.80;;;;;;5005593;28;20196;-67
2023/11/17 06:52:01;;;;;;;1.30;0.80;;;21.10;97.90;;;;;;4998932;28;20459;-64
2023/11/17 06:54:28;;;;;;;1.00;0.90;;;21.00;97.80;;;;;;5000429;28;20557;-66
2023/11/17 06:56:55;;;;;;;1.00;0.80;;;20.90;97.70;;;;;;4998913;28;20471;-66
2023/11/17 06:59:22;;;;;;;1.42;1.00;;;20.90;97.70;;;;;;5003932;28;20566;-65
2023/11/17 07:01:50;;;;;;;0.93;0.77;;;20.90;97.70;;;;;;4996389;28;20217;-60
2023/11/17 07:04:17;;;;;;;1.30;1.00;;;20.90;97.70;;;;;;4997126;28;20475;-61
2023/11/17 07:06:44;;;;;;;1.63;1.00;;;21.10;97.80;;;;;;4998158;28;20465;-60
2023/11/17 07:09:16;;;;;;;1.20;0.83;;;20.90;97.60;;;;;;5000813;28;20468;-62
2023/11/17 07:11:44;;;;;;;2.10;0.97;;;20.90;97.70;;;;;;5000413;28;21006;-62
2023/11/17 07:14:11;;;;;;;1.10;1.00;;;21.00;97.80;;;;;;4997768;28;20463;-62
2023/11/17 07:16:39;;;;;;;1.10;1.00;;;20.90;97.70;;;;;;4993747;28;20470;-62
2023/11/17 07:19:08;;;;;;;1.20;1.00;;;20.90;97.70;;;;;;4993957;28;20213;-61
2023/11/17 07:21:35;;;;;;;1.20;1.00;;;20.90;97.70;;;;;;4997258;28;20621;-60
2023/11/17 07:24:05;;;;;;;0.90;0.70;;;20.80;97.70;;;;;;4994852;28;20479;-60
2023/11/17 07:26:32;;;;;;;1.50;1.00;;;20.90;97.60;;;;;;4997760;28;20466;-61
2023/11/17 07:28:59;;;;;;;1.67;0.90;;;20.90;97.60;;;;;;4997364;28;20569;-62
2023/11/17 07:31:27;;;;;;;1.20;0.90;;;20.90;97.80;;;;;;5003850;28;20460;-60
2023/11/17 07:33:54;;;;;;;1.30;0.90;;;21.00;97.80;;;;;;4995164;28;20464;-62
2023/11/17 07:36:23;;;;;;;1.50;1.13;;;20.90;97.80;;;;;;4995779;28;20462;-62
2023/11/17 07:38:52;;;;;;;2.03;1.27;;;21.00;97.90;;;;;;4996331;28;20515;-61
2023/11/17 07:41:19;;;;;;;1.70;1.20;;;21.00;98.00;;;;;;5008084;28;20473;-62
2023/11/17 07:43:46;;;;;;;1.63;1.10;;;21.00;97.90;;;;;;5007167;28;20467;-61
2023/11/17 07:46:13;;;;;;;2.73;1.27;;;20.90;98.20;;;;;;4993650;28;20497;-62
2023/11/17 07:48:43;;;;;;;2.43;1.53;;;21.00;98.00;;;;;;5003844;28;21773;-62
2023/11/17 07:51:09;;;;;;;1.87;1.27;;;21.10;98.20;;;;;;5001496;28;20510;-60
2023/11/17 07:53:38;;;;;;;1.63;1.33;;;21.00;98.10;;;;;;5013485;28;20485;-60
2023/11/17 07:56:05;;;;;;;1.10;1.00;;;21.00;98.10;;;;;;5011073;28;20558;-60
2023/11/17 07:58:35;;;;;;;1.80;1.40;;;21.00;97.90;;;;;;5006551;28;20549;-61
2023/11/17 08:01:02;;;;;;;2.90;1.53;;;21.20;98.10;;;;;;4972734;28;1088453;-62
2023/11/17 08:03:30;;;;;;;1.93;1.60;;;21.00;98.10;;;;;;5008483;28;20456;-62
2023/11/17 08:05:57;;;;;;;9.90;7.27;;;21.10;98.10;;;;;;5006780;28;20469;-62
2023/11/17 08:08:24;;;;;;;17.10;9.13;;;21.10;96.10;;;;;;5007779;28;20482;-62
2023/11/17 08:10:53;;;;;;;8.10;6.20;;;20.90;93.30;;;;;;5019539;28;20481;-62
2023/11/17 08:13:20;;;;;;;13.63;7.53;;;20.80;95.10;;;;;;5024083;28;20465;-62
2023/11/17 08:15:49;;;;;;;6.93;6.23;;;20.90;95.30;;;;;;5014721;28;20474;-62
2023/11/17 08:18:16;;;;;;;7.37;4.40;;;20.90;95.60;;;;;;5028835;28;20466;-62
2023/11/17 08:20:44;;;;;;;6.67;4.00;;;21.00;95.80;;;;;;5019246;28;20465;-61
2023/11/17 08:23:11;;;;;;;9.00;4.70;;;20.90;95.90;;;;;;5025793;28;20834;-61
2023/11/17 08:25:38;;;;;;;5.63;3.90;;;21.00;96.20;;;;;;5020378;28;20464;-60
2023/11/17 08:28:07;;;;;;;4.67;4.27;;;21.00;96.30;;;;;;5029418;28;20484;-61
2023/11/17 08:30:34;;;;;;;4.50;4.10;;;21.00;96.70;;;;;;5009555;28;20504;-62
2023/11/17 08:33:03;;;;;;;5.23;3.37;;;21.00;96.50;;;;;;5027759;28;20523;-62
2023/11/17 08:35:30;;;;;;;6.10;3.83;;;21.20;96.80;;;;;;5021011;28;20466;-60
2023/11/17 08:37:57;;;;;;;14.23;3.97;;;21.10;97.00;;;;;;5022302;28;20461;-61
2023/11/17 08:40:24;;;;;;;4.70;3.77;;;21.20;97.10;;;;;;5029616;28;20453;-61
2023/11/17 08:42:51;;;;;;;3.67;2.93;;;21.10;97.10;;;;;;5030952;28;20461;-62
2023/11/17 08:45:19;;;;;;;4.57;3.63;;;21.20;97.30;;;;;;5031054;28;20465;-62
2023/11/17 08:47:48;;;;;;;3.77;3.40;;;21.20;97.40;;;;;;5036397;22;20490;-62
2023/11/17 08:50:15;;;;;;;4.93;3.20;;;21.20;97.60;;;;;;5026807;28;20463;-62
2023/11/17 08:52:43;;;;;;;4.13;3.10;;;21.20;97.80;;;;;;5023522;28;20466;-62
2023/11/17 08:55:13;;;;;;;4.33;3.57;;;21.20;97.40;;;;;;5037584;28;20465;-62
2023/11/17 08:57:41;;;;;;;4.97;3.27;;;21.30;97.40;;;;;;5039350;28;20469;-64
2023/11/17 09:00:12;;;;;;;6.17;3.77;;;21.20;97.10;;;;;;5020564;28;20548;-63
2023/11/17 09:02:42;;;;;;;4.97;3.70;;;21.20;96.40;;;;;;5030735;28;20546;-62
2023/11/17 09:05:09;;;;;;;6.83;3.83;;;21.20;96.40;;;;;;5026044;28;20453;-64
2023/11/17 09:07:40;;;;;;;4.37;3.17;;;21.20;96.50;;;;;;5025438;28;21776;-64
2023/11/17 09:10:09;;;;;;;3.43;3.13;;;21.30;96.60;;;;;;5024268;28;20460;-64
2023/11/17 09:12:37;;;;;;;3.53;3.03;;;21.20;96.50;;;;;;5032623;28;20490;-63
2023/11/17 09:15:08;;;;;;;3.40;2.60;;;21.30;96.60;;;;;;5024268;28;20470;-63
2023/11/17 09:17:34;;;;;;;4.67;2.87;;;21.20;96.60;;;;;;5030176;28;21030;-62
2023/11/17 09:20:04;;;;;;;5.70;3.37;;;21.30;96.70;;;;;;5025551;28;20460;-62
2023/11/17 09:22:31;;;;;;;3.40;3.00;;;21.20;96.70;;;;;;5029291;28;20549;-64
2023/11/17 09:24:58;;;;;;;5.53;3.77;;;21.30;96.70;;;;;;5031939;28;20500;-64
2023/11/17 09:27:24;;;;;;;3.40;2.43;;;21.30;96.70;;;;;;5029604;28;20465;-62
2023/11/17 09:29:51;;;;;;;4.63;2.93;;;21.20;96.70;;;;;;5022775;28;20462;-63
2023/11/17 09:32:18;;;;;;;4.00;3.30;;;21.40;96.90;;;;;;5024290;28;20463;-62
2023/11/17 09:34:45;;;;;;;4.60;3.30;;;21.30;96.80;;;;;;5026552;28;20493;-63
2023/11/17 09:37:13;;;;;;;3.80;2.77;;;21.30;96.70;;;;;;5027805;28;20465;-61
2023/11/17 09:39:40;;;;;;;5.90;2.67;;;21.40;96.60;;;;;;5019598;28;20465;-63
2023/11/17 09:42:10;;;;;;;3.73;3.30;;;21.30;96.50;;;;;;5027153;28;20467;-63
2023/11/17 09:44:38;;;;;;;3.50;2.87;;;21.20;96.40;;;;;;5017574;28;20465;-63
2023/11/17 09:47:12;;;;;;;3.53;3.23;;;21.20;96.40;;;;;;5022654;28;21008;-64
2023/11/17 09:49:40;;;;;;;3.40;3.00;;;21.30;96.90;;;;;;5028808;28;20493;-64
2023/11/17 09:52:07;;;;;;;3.70;3.40;;;21.30;96.80;;;;;;5025541;28;20458;-63
2023/11/17 09:54:37;;;;;;;5.63;3.17;;;21.30;96.90;;;;;;5024131;28;20472;-64
2023/11/17 09:57:06;;;;;;;5.03;3.87;;;21.30;96.90;;;;;;5026198;28;20461;-61
2023/11/17 09:59:33;;;;;;;4.43;3.07;;;21.20;96.90;;;;;;5026214;28;21433;-63
2023/11/17 10:02:00;;;;;;;5.27;2.93;;;21.30;97.00;;;;;;5023961;28;20462;-63
2023/11/17 10:04:29;;;;;;;4.63;2.87;;;21.20;97.00;;;;;;5024267;28;20461;-63
2023/11/17 10:06:57;;;;;;;3.87;2.87;;;21.30;97.10;;;;;;5021374;28;20533;-61
2023/11/17 10:09:26;;;;;;;4.17;3.27;;;21.30;97.10;;;;;;5022993;28;20481;-63
2023/11/17 10:11:55;;;;;;;4.13;3.73;;;21.30;97.00;;;;;;5023410;28;20454;-63
2023/11/17 10:14:26;;;;;;;5.80;3.40;;;21.40;97.10;;;;;;5023907;28;20481;-63
2023/11/17 10:16:55;;;;;;;4.53;4.00;;;21.30;97.00;;;;;;5028743;28;20485;-63
2023/11/17 10:19:23;;;;;;;8.00;4.03;;;21.30;97.00;;;;;;5025997;28;20465;-62
2023/11/17 10:21:51;;;;;;;4.80;3.73;;;21.30;96.90;;;;;;5028804;28;21032;-63
2023/11/17 10:24:18;;;;;;;4.20;3.30;;;21.40;97.10;;;;;;5023329;28;20449;-71
2023/11/17 10:26:47;;;;;;;6.00;3.70;;;21.50;97.00;;;;;;5026496;28;20457;-66
2023/11/17 10:29:15;;;;;;;6.37;4.33;;;21.40;97.10;;;;;;5025930;28;20482;-66
2023/11/17 10:31:46;;;;;;;6.40;3.27;;;21.40;97.10;;;;;;5022622;28;20455;-65
2023/11/17 10:34:14;;;;;;;8.73;4.33;;;21.50;97.10;;;;;;5012793;28;20465;-65
2023/11/17 10:36:56;;;;;;;6.40;3.53;;;21.50;97.10;;;;;;5026713;28;20469;-62
2023/11/17 10:39:24;;;;;;;6.90;4.00;;;21.50;97.20;;;;;;5027267;28;20465;-63
2023/11/17 10:41:51;;;;;;;6.30;3.27;;;21.50;97.10;;;;;;5028481;28;20492;-66
2023/11/17 10:44:31;;;;;;;5.43;3.10;;;21.60;97.30;;;;;;5020734;28;20570;-66
2023/11/17 10:46:58;;;;;;;8.70;4.40;;;21.50;97.30;;;;;;5024840;28;20470;-63
2023/11/17 10:49:25;;;;;;;5.30;3.50;;;21.60;97.40;;;;;;5025817;28;20564;-66
2023/11/17 10:51:53;;;;;;;7.97;3.67;;;21.50;97.80;;;;;;5024152;28;20461;-64
2023/11/17 10:54:21;;;;;;;4.87;3.33;;;21.50;97.30;;;;;;5025564;28;20473;-67
2023/11/17 10:56:48;;;;;;;5.27;3.60;;;21.60;97.40;;;;;;5029163;28;20454;-67
2023/11/17 10:59:18;;;;;;;3.53;3.23;;;21.60;97.70;;;;;;5028791;28;20465;-67
2023/11/17 11:01:47;;;;;;;7.53;3.80;;;21.50;97.80;;;;;;5027102;28;20575;-67
2023/11/17 11:04:16;;;;;;;7.03;3.37;;;21.50;98.00;;;;;;5028045;28;20981;-63
2023/11/17 11:06:43;;;;;;;7.00;4.03;;;21.50;98.20;;;;;;5018628;28;21144;-66
2023/11/17 11:09:16;;;;;;;5.40;3.60;;;21.60;98.80;;;;;;5023543;28;20474;-67
2023/11/17 11:11:48;;;;;;;7.00;4.43;;;21.60;98.70;;;;;;5024633;28;20458;-67
2023/11/17 11:14:17;;;;;;;6.60;3.47;;;21.60;98.50;;;;;;5030921;28;20504;-63
2023/11/17 11:16:48;;;;;;;5.43;3.77;;;21.60;98.10;;;;;;5014723;28;20469;-67
2023/11/17 11:19:16;;;;;;;5.10;3.07;;;21.60;97.90;;;;;;5022532;28;20474;-63
2023/11/17 11:21:48;;;;;;;7.53;3.83;;;21.60;98.20;;;;;;5016944;28;20602;-65
2023/11/17 11:24:17;;;;;;;5.40;3.73;;;21.60;98.30;;;;;;5020070;28;20450;-64
2023/11/17 11:26:44;;;;;;;4.10;3.53;;;21.60;98.20;;;;;;5012423;28;21519;-68
2023/11/17 11:29:13;;;;;;;6.20;3.50;;;21.60;97.90;;;;;;5027679;28;20628;-71
2023/11/17 11:31:42;;;;;;;5.70;3.37;;;21.60;98.20;;;;;;5029681;28;21033;-70
2023/11/17 11:34:10;;;;;;;5.67;3.43;;;21.70;98.30;;;;;;5023504;28;21060;-71
2023/11/17 11:36:36;;;;;;;4.47;3.40;;;21.60;97.90;;;;;;5024460;28;20811;-68
2023/11/17 11:39:06;;;;;;;7.60;4.00;;;21.60;97.90;;;;;;5020651;28;20449;-64
2023/11/17 11:41:34;;;;;;;5.77;4.30;;;21.70;98.30;;;;;;5024353;28;20473;-71
2023/11/17 11:44:03;;;;;;;6.50;3.90;;;21.80;97.90;;;;;;5022557;28;20458;-64
2023/11/17 11:46:30;;;;;;;5.50;3.77;;;21.70;98.20;;;;;;5023218;28;20473;-64
2023/11/17 11:49:01;;;;;;;4.33;3.93;;;21.80;98.30;;;;;;5020968;28;21146;-67
2023/11/17 11:51:32;;;;;;;5.37;3.70;;;21.70;98.30;;;;;;5024053;28;20967;-67
2023/11/17 11:54:02;;;;;;;5.63;3.77;;;21.80;98.30;;;;;;5019290;28;20467;-62
2023/11/17 11:56:31;;;;;;;5.43;3.93;;;21.90;98.30;;;;;;5020430;28;20468;-61
2023/11/17 11:58:58;;;;;;;4.60;3.63;;;22.00;98.30;;;;;;5016652;28;20462;-61
2023/11/17 12:01:32;;;;;;;5.63;3.53;;;21.80;98.10;;;;;;5021260;28;21080;-62
2023/11/17 12:04:00;;;;;;;4.03;2.83;;;21.90;98.20;;;;;;5019282;28;20458;-62
2023/11/17 12:06:30;;;;;;;5.87;3.60;;;22.00;98.90;;;;;;5016250;28;21148;-66
2023/11/17 12:08:58;;;;;;;4.77;3.83;;;21.90;98.90;;;;;;5021321;28;20473;-59
2023/11/17 12:11:31;;;;;;;4.00;3.50;;;22.00;99.10;;;;;;5025712;28;20458;-61
2023/11/17 12:13:58;;;;;;;4.80;4.00;;;21.90;99.10;;;;;;5024106;28;20975;-61
2023/11/17 12:16:33;;;;;;;4.37;3.13;;;22.00;99.20;;;;;;5024835;28;20458;-69
2023/11/17 12:19:01;;;;;;;10.33;4.27;;;22.00;99.00;;;;;;5026268;28;20479;-73
2023/11/17 12:21:28;;;;;;;5.97;4.57;;;22.00;99.10;;;;;;5022103;28;20469;-60
2023/11/17 12:23:58;;;;;;;6.10;4.70;;;21.90;99.20;;;;;;5018470;28;20967;-64
2023/11/17 12:26:25;;;;;;;6.37;3.97;;;22.00;99.30;;;;;;5024852;28;20488;-68
2023/11/17 12:28:53;;;;;;;6.00;3.73;;;22.00;99.00;;;;;;5025578;28;21016;-64
2023/11/17 12:31:21;;;;;;;5.93;4.30;;;22.00;99.10;;;;;;5025074;28;20504;-62
2023/11/17 12:33:50;;;;;;;5.30;3.37;;;22.00;98.80;;;;;;5026610;28;20466;-62
2023/11/17 12:36:18;;;;;;;4.30;3.40;;;22.10;98.80;;;;;;5028409;28;20453;-62
2023/11/17 12:38:50;;;;;;;4.77;3.50;;;22.10;99.20;;;;;;5025238;28;20457;-66
2023/11/17 12:41:20;;;;;;;5.47;4.37;;;22.00;99.20;;;;;;5027835;28;20461;-65
2023/11/17 12:43:49;;;;;;;6.37;4.40;;;22.10;99.50;;;;;;5025649;28;20462;-65
2023/11/17 12:46:16;;;;;;;4.63;4.10;;;22.10;99.70;;;;;;5028184;28;20459;-66
2023/11/17 12:48:44;;;;;;;6.27;4.77;;;22.10;99.90;;;;;;5030482;28;20475;-66
2023/11/17 12:51:12;;;;;;;6.30;3.83;;;22.30;99.90;;;;;;5026505;28;20460;-66